Time;durP1;ratioP1;P1;durP2;ratioP2;P2;SDS_P1;SDS_P2;PMS_P1;PMS_P2;Temp;Humidity;BMP_temperature;BMP_pressure;BME280_temperature;BME280_humidity;BME280_pressure;Samples;Min_cycle;Max_cycle;Signal;HPM_P1;HPM_P2
2023/10/08 00:00:38;;;;;;;8.23;6.40;;;16.10;74.20;;;;;;5060717;28;20071;-68
2023/10/08 00:02:45;;;;;;;8.27;6.82;;;16.00;74.00;;;;;;5059630;28;20445;-67
2023/10/08 00:05:16;;;;;;;9.93;7.10;;;16.10;74.20;;;;;;5060292;28;20592;-71
2023/10/08 00:07:42;;;;;;;7.57;6.25;;;16.00;74.10;;;;;;5061509;28;20036;-72
2023/10/08 00:10:09;;;;;;;10.02;7.18;;;16.00;74.10;;;;;;5061425;28;20035;-71
2023/10/08 00:12:34;;;;;;;10.15;6.75;;;16.00;74.20;;;;;;5056964;28;20056;-72
2023/10/08 00:15:00;;;;;;;8.48;5.95;;;15.90;74.00;;;;;;5049190;28;20114;-72
2023/10/08 00:17:26;;;;;;;6.93;5.55;;;15.90;74.10;;;;;;5052623;28;20123;-67
2023/10/08 00:19:52;;;;;;;11.68;6.85;;;15.90;74.10;;;;;;5056401;28;20043;-71
2023/10/08 00:22:19;;;;;;;9.75;6.05;;;15.90;74.10;;;;;;5057537;28;20028;-70
2023/10/08 00:24:46;;;;;;;10.73;6.45;;;15.80;74.00;;;;;;5057376;28;20047;-71
2023/10/08 00:27:17;;;;;;;7.07;5.82;;;15.80;74.00;;;;;;5051594;28;20028;-72
2023/10/08 00:29:45;;;;;;;6.82;5.93;;;15.80;74.10;;;;;;5056233;28;20377;-67
2023/10/08 00:32:14;;;;;;;7.28;5.32;;;15.80;74.10;;;;;;5058306;28;20083;-72
2023/10/08 00:34:42;;;;;;;8.77;5.88;;;15.70;73.90;;;;;;5054963;28;20085;-71
2023/10/08 00:37:14;;;;;;;8.15;5.10;;;15.70;73.90;;;;;;5055004;28;20408;-71
2023/10/08 00:39:45;;;;;;;6.53;4.88;;;15.70;73.90;;;;;;5059108;28;20392;-72
2023/10/08 00:42:12;;;;;;;7.97;5.70;;;15.60;73.80;;;;;;5054713;28;20477;-69
2023/10/08 00:44:47;;;;;;;8.88;6.47;;;15.60;73.80;;;;;;5057558;28;20063;-70
2023/10/08 00:47:16;;;;;;;7.57;4.82;;;15.60;73.80;;;;;;5060572;28;20462;-71
2023/10/08 00:54:55;;;;;;;7.00;5.43;;;15.50;73.70;;;;;;5062698;28;20094;-72
2023/10/08 00:57:30;;;;;;;6.15;4.78;;;15.50;73.80;;;;;;5060087;28;20446;-71
2023/10/08 00:59:58;;;;;;;8.27;5.20;;;15.40;73.60;;;;;;5060613;28;20066;-66
2023/10/08 01:03:00;;;;;;;8.15;6.13;;;15.40;73.70;;;;;;5058189;28;20138;-69
2023/10/08 01:05:25;;;;;;;6.43;5.40;;;15.40;73.70;;;;;;5056953;28;20063;-70
2023/10/08 01:07:55;;;;;;;7.80;5.18;;;15.40;73.70;;;;;;5060816;28;20028;-70
2023/10/08 01:10:24;;;;;;;5.65;5.13;;;15.40;73.70;;;;;;5058877;28;20037;-66
2023/10/08 01:13:11;;;;;;;7.55;4.45;;;15.40;73.80;;;;;;5046603;28;20028;-70
2023/10/08 01:15:37;;;;;;;7.55;4.82;;;15.40;73.80;;;;;;5054534;28;20024;-71
2023/10/08 01:18:06;;;;;;;6.75;5.40;;;15.30;73.60;;;;;;5062837;28;20462;-70
2023/10/08 01:20:48;;;;;;;8.52;5.20;;;15.30;73.70;;;;;;5051127;28;20453;-72
2023/10/08 01:23:16;;;;;;;5.43;4.93;;;15.30;73.70;;;;;;5063083;28;20515;-70
2023/10/08 01:26:09;;;;;;;6.10;4.78;;;15.20;73.60;;;;;;5053155;28;20041;-72
2023/10/08 01:28:36;;;;;;;6.00;5.07;;;15.20;73.50;;;;;;5060950;28;20028;-67
2023/10/08 01:31:06;;;;;;;6.95;4.95;;;15.20;73.60;;;;;;5060083;28;20029;-70
2023/10/08 01:33:37;;;;;;;5.03;4.45;;;15.20;73.60;;;;;;5063439;28;20025;-70
2023/10/08 01:36:04;;;;;;;4.72;4.15;;;15.20;73.60;;;;;;5058545;28;20025;-70
2023/10/08 01:38:33;;;;;;;5.53;3.90;;;15.10;73.40;;;;;;5061761;28;20174;-67
2023/10/08 01:41:05;;;;;;;7.28;5.07;;;15.10;73.50;;;;;;5062193;28;20032;-66
2023/10/08 01:43:31;;;;;;;6.93;4.35;;;15.10;73.50;;;;;;5057358;28;20052;-70
2023/10/08 01:45:58;;;;;;;5.63;3.67;;;15.10;73.50;;;;;;5062926;28;20063;-68
2023/10/08 01:48:37;;;;;;;4.97;3.80;;;15.00;73.40;;;;;;5061107;28;20122;-69
2023/10/08 01:51:11;;;;;;;5.65;3.95;;;15.00;73.40;;;;;;5048529;28;21520;-71
2023/10/08 01:53:38;;;;;;;5.55;4.45;;;15.00;73.40;;;;;;5063514;28;20099;-71
2023/10/08 01:56:05;;;;;;;5.07;4.40;;;15.00;73.70;;;;;;5060508;28;20245;-70
2023/10/08 01:58:33;;;;;;;6.07;3.95;;;14.90;73.30;;;;;;5057626;28;20043;-69
2023/10/08 02:01:00;;;;;;;4.70;4.10;;;14.90;73.30;;;;;;5057807;28;20043;-70
2023/10/08 02:03:29;;;;;;;4.82;4.13;;;14.90;73.30;;;;;;5056631;28;20028;-69
2023/10/08 02:05:59;;;;;;;4.13;3.38;;;14.90;73.40;;;;;;5059184;28;20047;-68
2023/10/08 02:08:30;;;;;;;4.50;4.05;;;14.90;73.40;;;;;;5051503;28;20039;-68
2023/10/08 02:10:56;;;;;;;4.55;3.63;;;14.90;73.40;;;;;;5057256;28;20040;-71
2023/10/08 02:13:22;;;;;;;4.30;3.33;;;14.80;73.20;;;;;;5061811;28;20028;-67
2023/10/08 02:15:51;;;;;;;3.50;3.17;;;14.80;73.20;;;;;;5044394;28;20060;-69
2023/10/08 02:18:18;;;;;;;4.60;3.20;;;14.70;73.00;;;;;;5058936;28;20454;-71
2023/10/08 02:20:45;;;;;;;3.97;2.78;;;14.80;73.30;;;;;;5059081;28;20036;-66
2023/10/08 02:23:11;;;;;;;4.70;2.70;;;14.70;73.10;;;;;;5051858;28;20035;-69
2023/10/08 02:25:41;;;;;;;4.30;2.40;;;14.70;73.60;;;;;;5049742;28;20517;-70
2023/10/08 02:28:08;;;;;;;3.55;2.47;;;14.70;73.10;;;;;;5055130;28;20376;-69
2023/10/08 02:30:36;;;;;;;3.97;3.05;;;14.70;73.10;;;;;;5051994;28;20138;-69
2023/10/08 02:33:02;;;;;;;3.92;2.53;;;14.70;73.10;;;;;;5054394;28;20498;-68
2023/10/08 02:35:28;;;;;;;2.58;2.38;;;14.70;73.10;;;;;;5058611;28;20032;-70
2023/10/08 02:37:54;;;;;;;4.28;2.05;;;14.60;73.00;;;;;;5056447;28;20465;-68
2023/10/08 02:40:26;;;;;;;2.22;2.00;;;14.60;73.00;;;;;;5057436;28;20051;-71
2023/10/08 02:42:58;;;;;;;3.03;1.85;;;14.60;73.00;;;;;;5058165;28;20518;-72
2023/10/08 02:45:28;;;;;;;4.28;2.00;;;14.60;73.50;;;;;;5047805;28;20029;-72
2023/10/08 02:47:57;;;;;;;2.50;1.98;;;14.50;72.80;;;;;;5056150;28;20037;-69
2023/10/08 02:50:23;;;;;;;2.35;2.08;;;14.50;72.80;;;;;;5047389;28;20032;-66
2023/10/08 02:52:49;;;;;;;2.08;1.88;;;14.50;72.80;;;;;;5054407;28;20032;-69
2023/10/08 02:55:50;;;;;;;2.75;2.33;;;14.50;72.80;;;;;;5049609;28;20061;-69
2023/10/08 02:58:16;;;;;;;1.55;1.40;;;14.50;72.80;;;;;;5057175;28;20533;-69
2023/10/08 03:00:42;;;;;;;1.85;1.63;;;14.40;72.70;;;;;;5061019;28;20037;-67
2023/10/08 03:03:24;;;;;;;1.45;1.35;;;14.40;72.60;;;;;;5056552;28;20683;-69
2023/10/08 03:05:56;;;;;;;1.40;1.20;;;14.40;72.60;;;;;;5062965;28;20040;-66
2023/10/08 03:08:23;;;;;;;2.05;1.40;;;14.40;72.70;;;;;;5060756;28;20024;-69
2023/10/08 03:10:55;;;;;;;2.28;1.70;;;14.40;72.70;;;;;;5065476;28;20038;-68
2023/10/08 03:13:22;;;;;;;2.20;1.50;;;14.30;72.50;;;;;;5044708;28;20075;-69
2023/10/08 03:18:35;;;;;;;1.60;1.50;;;14.30;72.50;;;;;;5061385;28;20056;-70
2023/10/08 03:21:04;;;;;;;1.92;1.30;;;14.30;72.50;;;;;;5058021;28;20504;-73
2023/10/08 03:23:34;;;;;;;1.88;1.55;;;14.30;72.60;;;;;;5069501;28;20035;-70
2023/10/08 03:26:11;;;;;;;2.05;1.85;;;14.30;72.60;;;;;;5062388;28;20070;-72
2023/10/08 03:28:41;;;;;;;1.90;1.80;;;14.30;72.60;;;;;;5061250;28;20020;-73
2023/10/08 03:31:16;;;;;;;2.72;2.05;;;14.20;72.40;;;;;;5061176;28;20119;-72
2023/10/08 03:33:48;;;;;;;2.45;2.25;;;14.20;72.40;;;;;;5060447;28;20097;-73
2023/10/08 03:36:21;;;;;;;1.83;1.73;;;14.20;73.00;;;;;;5056885;28;20052;-67
2023/10/08 03:38:51;;;;;;;2.90;2.40;;;14.20;72.50;;;;;;5056900;28;20021;-67
2023/10/08 03:41:32;;;;;;;2.75;2.20;;;14.20;72.50;;;;;;5052475;28;20037;-66
2023/10/08 03:44:01;;;;;;;2.35;2.15;;;14.20;72.50;;;;;;5060205;28;20036;-69
2023/10/08 03:46:29;;;;;;;3.10;2.63;;;14.20;72.50;;;;;;5057607;28;20483;-70
2023/10/08 03:48:57;;;;;;;2.80;2.60;;;14.10;72.40;;;;;;5037852;28;20345;-71
2023/10/08 03:51:27;;;;;;;3.90;3.15;;;14.10;72.40;;;;;;5052059;28;20038;-71
2023/10/08 03:54:07;;;;;;;3.65;3.35;;;14.20;72.60;;;;;;5058856;28;20425;-70
2023/10/08 03:56:36;;;;;;;3.92;3.13;;;14.10;72.50;;;;;;5047397;28;20506;-71
2023/10/08 03:59:12;;;;;;;5.18;3.20;;;14.10;72.50;;;;;;5052756;28;20472;-69
2023/10/08 04:01:45;;;;;;;4.45;3.40;;;14.10;72.50;;;;;;5051114;28;20037;-71
2023/10/08 04:04:15;;;;;;;4.35;3.95;;;14.10;72.60;;;;;;5058369;28;20052;-72
2023/10/08 04:06:51;;;;;;;4.28;3.40;;;14.10;72.60;;;;;;5052157;28;20320;-73
2023/10/08 04:12:03;;;;;;;5.72;3.65;;;14.00;72.50;;;;;;5059024;28;20356;-73
2023/10/08 04:14:29;;;;;;;5.50;3.80;;;14.10;72.60;;;;;;5052490;28;20039;-73
2023/10/08 04:16:55;;;;;;;5.28;3.80;;;14.00;72.50;;;;;;5058331;28;20029;-68
2023/10/08 04:19:32;;;;;;;4.55;3.90;;;14.00;72.50;;;;;;5069824;28;20033;-67
2023/10/08 04:21:58;;;;;;;5.30;4.13;;;14.00;72.50;;;;;;5074840;28;20516;-67
2023/10/08 04:24:35;;;;;;;5.65;4.22;;;14.00;72.60;;;;;;5073071;28;20024;-70
2023/10/08 04:27:09;;;;;;;4.60;4.20;;;14.00;72.60;;;;;;5059653;28;20193;-70
2023/10/08 04:29:37;;;;;;;4.13;3.72;;;14.00;72.60;;;;;;5058475;28;20028;-73
2023/10/08 04:32:08;;;;;;;5.90;4.55;;;14.00;72.60;;;;;;5053240;28;20024;-73
2023/10/08 04:34:35;;;;;;;4.65;4.20;;;13.90;72.50;;;;;;5052796;28;20032;-70
2023/10/08 04:37:00;;;;;;;4.65;4.13;;;13.90;72.50;;;;;;5052980;28;20036;-70
2023/10/08 04:39:34;;;;;;;6.28;4.72;;;13.90;72.60;;;;;;5056270;28;20095;-72
2023/10/08 04:42:10;;;;;;;4.63;4.23;;;13.90;72.60;;;;;;5049656;28;20021;-70
2023/10/08 04:44:43;;;;;;;5.32;4.82;;;13.90;72.60;;;;;;5050070;28;20071;-72
2023/10/08 04:47:12;;;;;;;5.07;4.57;;;13.90;72.70;;;;;;5055642;28;20056;-66
2023/10/08 04:49:45;;;;;;;5.35;4.53;;;13.80;72.50;;;;;;5054127;28;20035;-67
2023/10/08 04:52:14;;;;;;;5.78;4.55;;;13.90;72.80;;;;;;5059243;28;20040;-69
2023/10/08 04:54:50;;;;;;;5.95;4.78;;;13.80;72.60;;;;;;5058375;28;20029;-67
2023/10/08 04:57:21;;;;;;;6.32;4.88;;;13.80;72.90;;;;;;5058035;28;20032;-66
2023/10/08 04:59:50;;;;;;;6.57;5.32;;;13.80;72.70;;;;;;5053880;28;20059;-67
2023/10/08 05:07:40;;;;;;;5.13;3.90;;;13.70;72.60;;;;;;5055519;28;20048;-68
2023/10/08 05:12:37;;;;;;;4.72;4.20;;;13.70;72.70;;;;;;5062115;28;20032;-70
2023/10/08 05:20:30;;;;;;;7.15;4.55;;;13.70;72.80;;;;;;5060209;28;20768;-67
2023/10/08 05:23:06;;;;;;;6.70;4.15;;;13.60;72.70;;;;;;5063999;28;20031;-66
2023/10/08 05:25:40;;;;;;;5.00;4.35;;;13.60;72.70;;;;;;5062958;28;20353;-68
2023/10/08 05:28:11;;;;;;;5.85;5.25;;;13.60;72.70;;;;;;5064782;28;20336;-69
2023/10/08 05:33:24;;;;;;;5.68;4.47;;;13.60;72.80;;;;;;5061364;28;20388;-70
2023/10/08 05:36:02;;;;;;;5.78;4.15;;;13.60;72.80;;;;;;5058654;28;20036;-71
2023/10/08 06:05:22;;;;;;;4.15;3.22;;;13.40;72.80;;;;;;5057447;28;20028;-71
2023/10/08 06:18:25;;;;;;;5.22;4.45;;;13.40;73.00;;;;;;5061250;28;20032;-70
2023/10/08 06:21:09;;;;;;;4.95;4.22;;;13.40;73.10;;;;;;5057222;28;20024;-71
2023/10/08 06:23:37;;;;;;;8.10;3.63;;;13.30;73.40;;;;;;5050703;28;20637;-71
2023/10/08 06:28:39;;;;;;;;;;;13.30;72.90;;;;;;5060850;28;20414;-70
2023/10/08 06:31:11;;;;;;;6.28;3.97;;;13.30;72.90;;;;;;5053629;28;20278;-72
2023/10/08 06:33:41;;;;;;;5.30;3.75;;;13.30;72.80;;;;;;5053867;28;20041;-70
2023/10/08 06:36:13;;;;;;;6.57;4.28;;;13.30;72.80;;;;;;5056511;28;20037;-66
2023/10/08 06:38:41;;;;;;;4.53;3.58;;;13.30;72.80;;;;;;5059367;28;20020;-71
2023/10/08 06:41:10;;;;;;;7.68;4.50;;;13.30;72.90;;;;;;5039580;28;20120;-69
2023/10/08 06:43:36;;;;;;;5.05;3.70;;;13.30;72.90;;;;;;5056212;28;20488;-71
2023/10/08 06:46:04;;;;;;;6.80;3.92;;;13.30;72.80;;;;;;5053957;28;20087;-69
2023/10/08 06:48:29;;;;;;;5.45;3.45;;;13.20;72.70;;;;;;5056852;28;20025;-66
2023/10/08 06:51:07;;;;;;;5.80;4.38;;;13.20;72.70;;;;;;5057598;28;20028;-73
2023/10/08 06:53:33;;;;;;;4.18;3.72;;;13.20;72.80;;;;;;5058143;28;20107;-66
2023/10/08 06:56:04;;;;;;;7.60;4.40;;;13.20;72.80;;;;;;5052758;28;20495;-69
2023/10/08 06:58:34;;;;;;;6.53;4.00;;;13.20;72.80;;;;;;5056279;28;20036;-66
2023/10/08 07:01:04;;;;;;;6.65;4.55;;;13.20;72.80;;;;;;5055125;28;20146;-67
2023/10/08 07:03:32;;;;;;;5.32;3.63;;;13.20;72.80;;;;;;5048832;28;20536;-70
2023/10/08 07:06:00;;;;;;;6.15;4.05;;;13.30;72.90;;;;;;5055197;28;20044;-66
2023/10/08 07:08:31;;;;;;;5.40;3.50;;;13.30;72.90;;;;;;5053368;28;20417;-66
2023/10/08 07:11:00;;;;;;;5.03;3.70;;;13.30;73.00;;;;;;5068965;28;20400;-68
2023/10/08 07:13:29;;;;;;;5.55;4.32;;;13.30;72.90;;;;;;5062886;28;20025;-66
2023/10/08 07:15:56;;;;;;;6.07;3.92;;;13.30;72.90;;;;;;5048163;28;20395;-66
2023/10/08 07:18:25;;;;;;;5.60;4.13;;;13.30;72.90;;;;;;5055947;28;20025;-66
2023/10/08 07:21:00;;;;;;;6.38;3.75;;;13.30;73.00;;;;;;5053821;28;20487;-67
2023/10/08 07:23:29;;;;;;;4.72;3.72;;;13.30;73.00;;;;;;5059854;28;20017;-67
2023/10/08 07:26:10;;;;;;;3.67;2.88;;;13.30;72.90;;;;;;5055075;28;20052;-66
2023/10/08 07:28:43;;;;;;;4.63;2.97;;;13.40;73.10;;;;;;5053205;28;20104;-65
2023/10/08 07:31:23;;;;;;;3.13;2.83;;;13.40;73.10;;;;;;5049198;28;20039;-68
2023/10/08 07:33:56;;;;;;;3.75;2.90;;;13.40;73.10;;;;;;5055530;28;20039;-70
2023/10/08 07:36:30;;;;;;;3.17;2.53;;;13.40;73.10;;;;;;5053136;28;20032;-67
2023/10/08 07:38:57;;;;;;;4.47;3.17;;;13.40;73.20;;;;;;5056558;28;20067;-69
2023/10/08 07:41:23;;;;;;;4.72;3.45;;;13.50;73.40;;;;;;5049247;28;20068;-71
2023/10/08 07:43:55;;;;;;;11.93;4.50;;;13.50;73.50;;;;;;5060688;28;20243;-67
2023/10/08 07:46:26;;;;;;;10.30;6.95;;;13.60;73.80;;;;;;5052712;28;20515;-68
2023/10/08 07:48:55;;;;;;;47.35;34.75;;;13.60;73.90;;;;;;5052633;28;20522;-67
2023/10/08 07:51:23;;;;;;;88.30;59.75;;;13.70;74.10;;;;;;5058740;28;20036;-67
2023/10/08 07:53:55;;;;;;;47.60;36.65;;;13.70;74.20;;;;;;5055432;28;20273;-72
2023/10/08 07:56:23;;;;;;;46.08;30.98;;;13.80;74.70;;;;;;5058454;28;20047;-68
2023/10/08 07:58:50;;;;;;;40.83;25.88;;;13.80;74.80;;;;;;5053432;28;20109;-70
2023/10/08 08:01:16;;;;;;;26.92;21.90;;;13.90;75.20;;;;;;5054561;28;20061;-71
2023/10/08 08:03:45;;;;;;;34.53;20.02;;;14.00;75.60;;;;;;5058196;28;20040;-68
2023/10/08 08:06:13;;;;;;;20.92;15.65;;;14.00;75.70;;;;;;5052094;28;20531;-69
2023/10/08 08:08:40;;;;;;;17.42;12.77;;;14.10;76.00;;;;;;5055897;28;20460;-70
2023/10/08 08:11:13;;;;;;;18.33;13.52;;;14.20;76.20;;;;;;5059376;28;20154;-69
2023/10/08 08:13:42;;;;;;;15.32;11.93;;;14.20;76.30;;;;;;5052195;28;20623;-68
2023/10/08 08:16:17;;;;;;;15.10;10.95;;;14.30;76.60;;;;;;5051693;28;20181;-68
2023/10/08 08:18:48;;;;;;;14.93;10.93;;;14.40;76.90;;;;;;5053633;28;20321;-69
2023/10/08 08:21:16;;;;;;;14.33;10.67;;;14.40;77.00;;;;;;5052531;28;20127;-70
2023/10/08 08:23:49;;;;;;;12.88;9.52;;;14.50;77.10;;;;;;5059272;28;20281;-71
2023/10/08 08:26:29;;;;;;;16.60;9.77;;;14.50;77.20;;;;;;5054165;28;20037;-69
2023/10/08 08:28:57;;;;;;;15.13;8.80;;;14.60;77.60;;;;;;5055080;28;20032;-70
2023/10/08 08:31:25;;;;;;;15.65;8.80;;;14.60;77.50;;;;;;5055695;28;20033;-68
2023/10/08 08:34:02;;;;;;;12.20;7.75;;;14.70;77.80;;;;;;5053747;28;20116;-67
2023/10/08 08:36:31;;;;;;;15.63;8.77;;;14.80;78.00;;;;;;5051798;28;20036;-67
2023/10/08 08:38:58;;;;;;;11.63;8.48;;;14.80;78.20;;;;;;5056982;28;20116;-68
2023/10/08 08:41:25;;;;;;;12.73;8.68;;;14.90;78.30;;;;;;5046155;28;20028;-67
2023/10/08 08:44:06;;;;;;;15.30;9.00;;;15.00;78.60;;;;;;5051655;28;20028;-67
2023/10/08 08:46:35;;;;;;;10.95;8.10;;;15.00;78.70;;;;;;5054244;28;20036;-67
2023/10/08 08:49:04;;;;;;;13.45;7.95;;;15.10;78.80;;;;;;5056147;28;21359;-69
2023/10/08 08:51:31;;;;;;;8.73;7.63;;;15.20;79.10;;;;;;5063117;28;20036;-72
2023/10/08 08:54:06;;;;;;;9.80;6.80;;;15.30;79.20;;;;;;5057464;28;20510;-70
2023/10/08 08:56:38;;;;;;;11.25;7.60;;;15.40;79.40;;;;;;5061158;28;20067;-72
2023/10/08 08:59:05;;;;;;;12.98;7.25;;;15.50;79.60;;;;;;5056113;28;20079;-73
2023/10/08 09:01:32;;;;;;;11.43;7.47;;;15.50;79.50;;;;;;5057345;28;20506;-72
2023/10/08 09:04:05;;;;;;;7.28;6.03;;;15.70;79.70;;;;;;5061168;28;20127;-71
2023/10/08 09:06:33;;;;;;;11.07;7.28;;;15.80;79.90;;;;;;5062583;28;20726;-71
2023/10/08 09:09:22;;;;;;;14.73;7.13;;;15.90;79.90;;;;;;5056366;28;20254;-70
2023/10/08 09:11:51;;;;;;;9.90;6.43;;;16.00;80.00;;;;;;5052958;28;20068;-69
2023/10/08 09:14:21;;;;;;;8.35;5.60;;;16.20;80.00;;;;;;5054104;28;20068;-70
2023/10/08 09:16:48;;;;;;;6.72;5.35;;;16.30;80.10;;;;;;5057501;28;20384;-71
2023/10/08 09:19:18;;;;;;;7.85;5.43;;;16.40;80.10;;;;;;5059872;28;20033;-72
2023/10/08 09:22:07;;;;;;;5.88;5.25;;;16.50;80.10;;;;;;5041062;28;20579;-71
2023/10/08 09:24:36;;;;;;;7.07;5.53;;;16.60;80.20;;;;;;5056771;28;20383;-73
2023/10/08 09:27:15;;;;;;;9.57;5.80;;;16.80;80.20;;;;;;5059924;28;20218;-72
2023/10/08 09:29:42;;;;;;;7.20;5.28;;;16.90;80.30;;;;;;5061982;28;20047;-72
2023/10/08 09:32:09;;;;;;;8.30;4.90;;;17.10;80.40;;;;;;5052734;28;20056;-72
2023/10/08 09:34:36;;;;;;;6.38;5.05;;;17.20;80.40;;;;;;5062087;28;20028;-69
2023/10/08 09:37:03;;;;;;;7.18;5.07;;;17.30;80.30;;;;;;5059800;28;20033;-72
2023/10/08 09:39:33;;;;;;;11.20;4.85;;;17.40;80.30;;;;;;5060903;28;20039;-68
2023/10/08 09:42:02;;;;;;;4.78;4.15;;;17.60;80.50;;;;;;5054255;28;20031;-68
2023/10/08 09:44:30;;;;;;;5.97;4.05;;;17.70;80.40;;;;;;5059688;28;20032;-70
2023/10/08 09:47:08;;;;;;;6.43;4.72;;;17.80;80.30;;;;;;5074580;28;20066;-69
2023/10/08 09:49:49;;;;;;;9.25;5.20;;;17.90;80.30;;;;;;5052814;28;20576;-71
2023/10/08 09:52:18;;;;;;;5.72;3.90;;;18.10;80.40;;;;;;5056202;28;20632;-72
2023/10/08 09:54:59;;;;;;;8.77;5.05;;;18.10;80.00;;;;;;5060913;28;20051;-71
2023/10/08 09:57:26;;;;;;;5.97;4.25;;;18.30;80.10;;;;;;5053456;28;20040;-73
2023/10/08 09:59:53;;;;;;;5.10;4.57;;;18.40;80.00;;;;;;5058885;28;20135;-70
2023/10/08 10:02:22;;;;;;;6.50;4.03;;;18.50;80.00;;;;;;5056733;28;20131;-70
2023/10/08 10:04:53;;;;;;;5.75;3.50;;;18.50;79.70;;;;;;5061799;28;20036;-72
2023/10/08 10:07:20;;;;;;;4.18;3.63;;;18.60;79.70;;;;;;5054879;28;20457;-71
2023/10/08 10:09:50;;;;;;;5.07;3.50;;;18.70;79.60;;;;;;5060670;28;20029;-73
2023/10/08 10:12:25;;;;;;;4.57;3.38;;;18.80;80.10;;;;;;5057804;28;20029;-72
2023/10/08 10:14:57;;;;;;;5.85;3.50;;;18.90;79.50;;;;;;5055068;28;20028;-67
2023/10/08 10:17:28;;;;;;;5.30;3.88;;;18.90;79.30;;;;;;5053830;28;20040;-71
2023/10/08 10:19:55;;;;;;;6.90;3.88;;;19.00;79.30;;;;;;5055630;28;20326;-72
2023/10/08 10:22:35;;;;;;;8.30;4.82;;;19.10;79.20;;;;;;5055977;28;20028;-72
2023/10/08 10:25:14;;;;;;;4.55;3.42;;;19.20;79.20;;;;;;5058285;28;20086;-68
2023/10/08 10:27:56;;;;;;;6.53;3.60;;;19.20;79.00;;;;;;5058027;28;20416;-72
2023/10/08 10:30:23;;;;;;;4.97;3.72;;;19.30;78.90;;;;;;5057768;28;20117;-71
2023/10/08 10:32:52;;;;;;;5.10;3.50;;;19.30;78.70;;;;;;5055855;28;20044;-70
2023/10/08 10:35:19;;;;;;;4.25;3.63;;;19.30;78.40;;;;;;5057543;28;20443;-69
2023/10/08 10:37:53;;;;;;;7.65;4.05;;;19.40;78.50;;;;;;5057382;28;20177;-72
2023/10/08 10:40:41;;;;;;;6.78;4.28;;;19.40;78.30;;;;;;5058632;28;20339;-71
2023/10/08 10:43:09;;;;;;;4.55;3.08;;;19.40;78.10;;;;;;5056341;28;20093;-67
2023/10/08 10:45:46;;;;;;;4.95;3.65;;;19.50;78.10;;;;;;5056721;28;20494;-68
2023/10/08 10:53:44;;;;;;;5.60;3.28;;;19.60;77.60;;;;;;5046255;28;20032;-71
2023/10/08 10:56:18;;;;;;;4.85;4.10;;;19.70;77.50;;;;;;5059392;28;20025;-70
2023/10/08 10:58:53;;;;;;;4.95;3.60;;;19.80;77.40;;;;;;5059278;28;20520;-67
2023/10/08 11:01:29;;;;;;;5.25;3.90;;;19.80;77.10;;;;;;5055000;28;20037;-69
2023/10/08 11:03:57;;;;;;;4.93;3.42;;;19.90;77.00;;;;;;5056875;28;20360;-67
2023/10/08 11:06:25;;;;;;;3.72;3.25;;;20.00;77.00;;;;;;5051163;28;20124;-67
2023/10/08 11:08:56;;;;;;;4.47;3.30;;;20.00;76.80;;;;;;5058614;28;20388;-67
2023/10/08 11:11:29;;;;;;;5.88;2.83;;;20.10;76.70;;;;;;5059334;28;20239;-70
2023/10/08 11:14:00;;;;;;;3.38;2.90;;;20.20;76.60;;;;;;5058675;28;20040;-68
2023/10/08 11:16:31;;;;;;;4.82;3.28;;;20.20;76.40;;;;;;5052096;28;20115;-71
2023/10/08 11:19:01;;;;;;;3.65;2.78;;;20.30;76.30;;;;;;5055003;28;20893;-67
2023/10/08 11:21:33;;;;;;;5.80;3.10;;;20.40;76.20;;;;;;5056168;28;20439;-68
2023/10/08 11:24:01;;;;;;;4.40;3.22;;;20.50;76.10;;;;;;5050309;28;20392;-67
2023/10/08 11:26:38;;;;;;;4.20;3.20;;;20.50;75.80;;;;;;5054539;28;20043;-66
2023/10/08 11:29:13;;;;;;;4.80;3.20;;;20.60;75.70;;;;;;5058482;28;20059;-68
2023/10/08 11:31:45;;;;;;;8.50;3.95;;;20.60;75.60;;;;;;5049919;28;20028;-70
2023/10/08 11:34:13;;;;;;;5.40;3.65;;;20.80;75.70;;;;;;5056975;28;20024;-69
2023/10/08 11:36:53;;;;;;;7.60;4.05;;;20.80;75.40;;;;;;5058130;28;20055;-68
2023/10/08 11:39:22;;;;;;;6.25;3.38;;;20.90;75.40;;;;;;5059054;28;20068;-71
2023/10/08 11:42:02;;;;;;;8.93;5.35;;;20.90;75.10;;;;;;5053918;28;20039;-67
2023/10/08 11:44:35;;;;;;;8.70;5.22;;;20.90;75.30;;;;;;5056184;28;20116;-68
2023/10/08 11:47:45;;;;;;;;;;;21.10;76.00;;;;;;5058411;28;20437;-68
2023/10/08 11:50:08;;;;;;;11.45;7.05;;;21.10;76.10;;;;;;5047512;28;19915;-71
2023/10/08 11:52:35;;;;;;;;;;;21.20;76.70;;;;;;5056913;28;20089;-67
2023/10/08 11:55:06;;;;;;;13.80;7.90;;;21.30;76.40;;;;;;5050166;28;20372;-69
2023/10/08 11:57:35;;;;;;;12.45;8.15;;;21.40;76.50;;;;;;5054780;28;20028;-73
2023/10/08 12:00:18;;;;;;;13.32;7.68;;;21.50;76.90;;;;;;5057576;28;20492;-71
2023/10/08 12:02:49;;;;;;;10.93;7.57;;;21.60;77.40;;;;;;5057903;28;20052;-71
2023/10/08 12:05:18;;;;;;;11.65;7.30;;;21.70;78.00;;;;;;5056121;28;20508;-72
2023/10/08 12:07:50;;;;;;;14.65;7.32;;;21.80;78.60;;;;;;5057793;28;20024;-70
2023/10/08 12:10:22;;;;;;;9.93;6.03;;;21.90;79.20;;;;;;5056033;28;20083;-69
2023/10/08 12:12:49;;;;;;;10.02;5.75;;;22.00;79.50;;;;;;5057373;28;20028;-71
2023/10/08 12:15:19;;;;;;;10.30;5.65;;;22.10;79.80;;;;;;5052126;28;20064;-69
2023/10/08 12:18:08;;;;;;;9.65;5.50;;;22.10;79.90;;;;;;5061295;28;20031;-71
2023/10/08 12:20:38;;;;;;;6.78;5.25;;;22.20;80.10;;;;;;5056236;28;20418;-72
2023/10/08 12:23:10;;;;;;;5.72;5.00;;;22.30;80.00;;;;;;5056302;28;20494;-71
2023/10/08 12:25:37;;;;;;;7.88;5.25;;;22.30;79.70;;;;;;5051149;28;20090;-72
2023/10/08 12:28:04;;;;;;;5.97;4.38;;;22.40;79.70;;;;;;5061484;28;20043;-70
2023/10/08 12:30:41;;;;;;;8.98;4.63;;;22.40;79.40;;;;;;5059097;28;20437;-70
2023/10/08 12:33:09;;;;;;;6.25;4.20;;;22.40;79.00;;;;;;5056920;28;20392;-71
2023/10/08 12:35:37;;;;;;;7.22;5.57;;;22.50;78.80;;;;;;5058865;28;20036;-68
2023/10/08 12:38:05;;;;;;;4.60;3.85;;;22.50;78.50;;;;;;5055489;28;20028;-71
2023/10/08 12:40:42;;;;;;;4.95;4.03;;;22.50;78.20;;;;;;5058655;28;20388;-71
2023/10/08 12:43:09;;;;;;;8.25;4.50;;;22.50;77.90;;;;;;5058085;28;20032;-68
2023/10/08 12:45:37;;;;;;;6.47;4.95;;;22.50;77.70;;;;;;5061154;28;20076;-69
2023/10/08 12:48:05;;;;;;;5.72;3.33;;;22.60;77.70;;;;;;5056755;28;20059;-71
2023/10/08 12:50:42;;;;;;;5.65;3.80;;;22.60;77.50;;;;;;5054812;28;20090;-68
2023/10/08 12:53:11;;;;;;;6.82;4.03;;;22.60;77.20;;;;;;5057681;28;20024;-71
2023/10/08 12:55:41;;;;;;;8.18;4.30;;;22.70;77.20;;;;;;5057233;28;20061;-72
2023/10/08 12:58:11;;;;;;;4.00;3.38;;;22.70;76.90;;;;;;5061625;28;20118;-67
2023/10/08 13:00:37;;;;;;;4.85;3.95;;;22.70;76.80;;;;;;5050823;28;20074;-69
2023/10/08 13:03:15;;;;;;;5.38;4.05;;;22.70;76.40;;;;;;5059633;28;20704;-68
2023/10/08 13:05:44;;;;;;;6.85;3.72;;;22.80;76.30;;;;;;5055021;28;20115;-67
2023/10/08 13:08:13;;;;;;;5.80;3.65;;;22.80;76.10;;;;;;5060893;28;20499;-67
2023/10/08 13:10:43;;;;;;;6.43;3.53;;;22.80;75.80;;;;;;5053988;28;20039;-67
2023/10/08 13:13:11;;;;;;;4.30;3.85;;;22.90;75.50;;;;;;5058733;28;20020;-68
2023/10/08 13:15:38;;;;;;;4.93;3.78;;;22.90;75.00;;;;;;5051139;28;20388;-68
2023/10/08 13:18:05;;;;;;;6.97;4.53;;;22.90;74.60;;;;;;5062562;28;20036;-68
2023/10/08 13:20:34;;;;;;;4.38;3.58;;;22.90;74.10;;;;;;5050458;28;20213;-70
2023/10/08 13:23:01;;;;;;;5.68;3.70;;;23.00;74.00;;;;;;5050168;28;20064;-69
2023/10/08 13:25:27;;;;;;;4.53;4.10;;;23.10;73.80;;;;;;5057873;28;20044;-69
2023/10/08 13:27:54;;;;;;;5.82;3.40;;;23.10;73.50;;;;;;5058288;28;20652;-71
2023/10/08 13:30:20;;;;;;;6.22;3.92;;;23.20;73.60;;;;;;5056511;28;20237;-70
2023/10/08 13:32:46;;;;;;;6.25;3.40;;;23.30;73.70;;;;;;5050905;28;20032;-67
2023/10/08 13:35:13;;;;;;;5.25;3.13;;;23.40;73.50;;;;;;5059325;28;20115;-69
2023/10/08 13:37:40;;;;;;;5.78;3.28;;;23.60;73.40;;;;;;5058092;28;20472;-72
2023/10/08 13:40:06;;;;;;;5.22;3.63;;;23.70;73.10;;;;;;5060674;28;20165;-68
2023/10/08 13:42:32;;;;;;;4.72;3.38;;;23.80;72.70;;;;;;5060007;28;20157;-73
2023/10/08 13:44:59;;;;;;;5.20;3.17;;;24.00;72.50;;;;;;5058510;28;20143;-67
2023/10/08 13:47:26;;;;;;;5.28;2.92;;;24.10;72.20;;;;;;5059101;28;20470;-69
2023/10/08 13:49:53;;;;;;;4.60;2.88;;;24.20;72.10;;;;;;5051786;28;20040;-69
2023/10/08 13:52:26;;;;;;;4.55;2.97;;;24.30;72.00;;;;;;5050865;28;20382;-67
2023/10/08 13:54:55;;;;;;;3.72;2.70;;;24.40;71.80;;;;;;5060856;28;20046;-67
2023/10/08 13:57:21;;;;;;;7.93;3.13;;;24.50;71.70;;;;;;5056836;28;20033;-72
2023/10/08 13:59:48;;;;;;;4.35;2.85;;;24.50;71.50;;;;;;5066479;28;20062;-70
2023/10/08 14:02:19;;;;;;;5.32;2.97;;;24.60;71.60;;;;;;5058170;28;20052;-69
2023/10/08 14:04:50;;;;;;;3.60;2.45;;;24.50;71.20;;;;;;5051444;28;20740;-67
2023/10/08 14:07:16;;;;;;;7.18;2.90;;;24.60;71.20;;;;;;5056932;28;20145;-69
2023/10/08 14:09:46;;;;;;;3.45;2.88;;;24.60;71.20;;;;;;5054185;28;20024;-69
2023/10/08 14:12:15;;;;;;;5.55;2.72;;;24.60;70.90;;;;;;5052156;28;20043;-67
2023/10/08 14:14:46;;;;;;;4.15;3.25;;;24.60;70.90;;;;;;5060752;28;20116;-69